Yateley, United Kingdom
Current Conditions -  °F | °C
As of 4:20 PM on Friday 21 Nov 2014 (Local Time) from EGLF Reporting Station
Light Rain Light Rain  
Wind Chill: 41°   Ceiling: 1000
Heat Index: 45°   Visibility: 2.7mi
Dew Point: 45°   Wind: 6mph
Humidity: 100%   Direction: 100°E
Pressure: 29.97"   Gusts: NA
Location:  51.34°N, 0.82°W
Report Text: EGLF 211620Z 10005KT 4400 -RADZ OVC010 07/07 Q1015
Loading
Personal Weather Stations






























Interactive Weather Map New forecast layout! Learn more

10-Day Weather Forecast

Advertisements
Track Severe Weather on mobile